map of CEN home
CEN - Airport
Location
City:  Ciudad Obregón, Sonora, México
Name:Ciudad Obregón International Airport
ICAO:MMCN
IATA:CEN

Details
Type:Airport (Aerodrome, Airfield)
Use:Public/Civil, International (customs port of entry)
Latitude:27°23'34"N (27.392639)
Longitude:109°49'59"W (-109.833110)
Datum:WGS 1984
Elevation:205 ft (62 m)
Variation:8.74°E (WMM2015 magnetic declination)
-0.09° annual change
Runways:1
Longest:7546 × 148 ft (2300 × 45 m), paved

Time
Time Zone:UTC-7
Local Time:

Weather
METAR:MMCN 160140Z 35005KT 8SM BKN080 OVC100 18/05 A2999 RMK 8/07/ HZY

Related Locations
Nearby:
Farthest:RRG: 11757 mi / 18921 km
Plaine Corail [Sir Gaëtan Duval Airport (Plaine Corail Airport)], Rodrigues Island, MU

Find:

   beyond  
but within

Other Information
Maps:
NOTAMs:
Links:
Sources:

  
  • flag of México
  • flag of Sonora
  

Sectional Chart

Flight Planning
at skyvector.com

Satellite Image

Google Maps Satellite view

 

Copyright © 2004-2018 Karl L. Swartz. All rights reserved.
The Great Circle Mapper name and logo are trademarks of the Great Circle Mapper.
All other trademarks mentioned herein belong to their respective owners.
Please see credits for attibutions and further copyright information.

  Follow gcmap on Facebook Follow gcmap on Twitter Follow gcmap on Google+ GCmap on LinkedIn

hCard Microformat

Geo Microformat